Time;durP1;ratioP1;P1;durP2;ratioP2;P2;SDS_P1;SDS_P2;PMS_P1;PMS_P2;Temp;Humidity;BMP_temperature;BMP_pressure;BME280_temperature;BME280_humidity;BME280_pressure;Samples;Min_cycle;Max_cycle;Signal;HPM_P1;HPM_P2
2022/09/24 00:00:18;;;;;;;5.85;2.50;;;;;;;;;;4963774;28;20045;-68
2022/09/24 00:02:44;;;;;;;5.15;2.60;;;;;;;;;;4968117;28;20038;-66
2022/09/24 00:05:11;;;;;;;6.40;2.78;;;;;;;;;;4968954;28;20034;-68
2022/09/24 00:07:37;;;;;;;4.60;2.28;;;;;;;;;;4972135;28;20092;-66
2022/09/24 00:10:04;;;;;;;6.18;2.88;;;;;;;;;;4974050;28;20450;-66
2022/09/24 00:12:31;;;;;;;7.10;2.90;;;;;;;;;;4980276;28;21441;-66
2022/09/24 00:14:57;;;;;;;5.25;2.65;;;;;;;;;;4980288;28;20038;-68
2022/09/24 00:17:24;;;;;;;7.05;2.42;;;;;;;;;;4980534;28;20096;-65
2022/09/24 00:19:50;;;;;;;6.18;2.70;;;;;;;;;;4979770;28;20064;-65
2022/09/24 00:22:17;;;;;;;5.88;2.78;;;;;;;;;;4979219;28;20042;-64
2022/09/24 00:27:29;;;;;;;6.25;2.88;;;;;;;;;;4982485;28;20049;-65
2022/09/24 00:29:55;;;;;;;6.68;2.80;;;;;;;;;;4982071;28;20109;-65
2022/09/24 00:32:23;;;;;;;6.57;3.13;;;;;;;;;;4979323;28;20086;-65
2022/09/24 00:34:52;;;;;;;6.68;3.08;;;;;;;;;;4981584;28;20050;-62
2022/09/24 00:37:18;;;;;;;5.65;2.67;;;;;;;;;;4977133;28;20057;-64
2022/09/24 00:39:46;;;;;;;5.47;2.70;;;;;;;;;;4966536;28;20041;-64
2022/09/24 00:42:13;;;;;;;5.35;2.72;;;;;;;;;;4956600;28;20054;-66
2022/09/24 00:44:39;;;;;;;5.85;2.63;;;;;;;;;;4958502;28;20046;-66
2022/09/24 00:47:11;;;;;;;4.63;2.70;;;;;;;;;;4959138;28;20035;-66
2022/09/24 00:49:38;;;;;;;7.15;2.13;;;;;;;;;;4957855;28;20592;-67
2022/09/24 00:52:05;;;;;;;5.45;2.53;;;;;;;;;;4971547;28;20069;-67
2022/09/24 00:54:32;;;;;;;4.50;2.60;;;;;;;;;;4961129;28;20065;-66
2022/09/24 00:57:00;;;;;;;6.97;2.25;;;;;;;;;;4961178;28;20039;-66
2022/09/24 00:59:27;;;;;;;6.03;2.65;;;;;;;;;;4959649;28;20119;-65
2022/09/24 01:01:56;;;;;;;5.00;2.60;;;;;;;;;;4960122;28;20035;-65
2022/09/24 01:04:24;;;;;;;5.43;2.40;;;;;;;;;;4957649;28;20101;-64
2022/09/24 01:06:51;;;;;;;5.20;2.83;;;;;;;;;;4956849;28;20067;-63
2022/09/24 01:09:19;;;;;;;6.53;2.53;;;;;;;;;;4958994;28;20034;-65
2022/09/24 01:11:54;;;;;;;5.25;2.60;;;;;;;;;;4957651;28;20320;-65
2022/09/24 01:14:31;;;;;;;5.75;2.65;;;;;;;;;;4957672;28;20035;-65
2022/09/24 01:17:21;;;;;;;9.80;2.40;;;;;;;;;;4958512;28;20921;-66
2022/09/24 01:20:08;;;;;;;5.05;2.50;;;;;;;;;;4967288;28;20058;-65
2022/09/24 01:22:57;;;;;;;4.95;2.47;;;;;;;;;;4956650;28;20050;-65
2022/09/24 01:25:39;;;;;;;4.50;2.50;;;;;;;;;;4958830;28;20058;-64
2022/09/24 01:28:09;;;;;;;4.75;2.55;;;;;;;;;;4960447;28;20042;-65
2022/09/24 01:30:37;;;;;;;4.88;2.20;;;;;;;;;;4957036;28;20389;-65
2022/09/24 01:33:07;;;;;;;5.32;2.30;;;;;;;;;;4959065;28;20463;-66
2022/09/24 01:35:43;;;;;;;4.28;2.03;;;;;;;;;;4959038;28;20134;-65
2022/09/24 01:38:13;;;;;;;7.60;2.42;;;;;;;;;;4959741;28;20529;-66
2022/09/24 01:40:41;;;;;;;4.82;2.20;;;;;;;;;;4961410;28;20363;-67
2022/09/24 01:43:08;;;;;;;4.45;2.13;;;;;;;;;;4958230;28;20372;-66
2022/09/24 01:45:37;;;;;;;3.97;2.17;;;;;;;;;;4957778;28;22353;-65
2022/09/24 01:48:04;;;;;;;4.50;2.15;;;;;;;;;;4959095;28;20047;-66
2022/09/24 01:50:35;;;;;;;8.25;2.45;;;;;;;;;;4970600;28;20045;-67
2022/09/24 01:53:17;;;;;;;4.63;2.20;;;;;;;;;;4967705;28;20039;-66
2022/09/24 01:55:48;;;;;;;5.88;2.10;;;;;;;;;;4959371;28;20431;-66
2022/09/24 01:58:18;;;;;;;5.82;2.35;;;;;;;;;;4958738;28;20054;-64
2022/09/24 02:00:47;;;;;;;5.95;2.35;;;;;;;;;;4957949;28;20043;-65
2022/09/24 02:03:21;;;;;;;4.32;2.10;;;;;;;;;;4959094;28;20042;-66
2022/09/24 02:05:51;;;;;;;6.05;2.33;;;;;;;;;;4959504;28;20122;-66
2022/09/24 02:08:22;;;;;;;4.40;2.05;;;;;;;;;;4963191;28;20502;-66
2022/09/24 02:10:52;;;;;;;5.53;2.20;;;;;;;;;;4966714;28;20102;-65
2022/09/24 02:13:20;;;;;;;7.72;2.58;;;;;;;;;;4962210;28;20114;-65
2022/09/24 02:15:49;;;;;;;6.35;2.08;;;;;;;;;;4985435;28;20134;-64
2022/09/24 02:18:18;;;;;;;4.57;2.28;;;;;;;;;;4986478;28;20764;-64
2022/09/24 02:20:46;;;;;;;5.20;2.50;;;;;;;;;;4984320;28;20442;-65
2022/09/24 02:23:15;;;;;;;7.35;2.58;;;;;;;;;;4985012;28;20132;-64
2022/09/24 02:25:56;;;;;;;4.18;2.30;;;;;;;;;;4987132;28;20669;-65
2022/09/24 02:28:23;;;;;;;5.45;2.28;;;;;;;;;;4985867;28;20050;-64
2022/09/24 02:31:02;;;;;;;4.85;2.17;;;;;;;;;;4986106;28;20038;-64
2022/09/24 02:36:15;;;;;;;7.07;2.63;;;;;;;;;;4985951;28;20045;-65
2022/09/24 02:38:41;;;;;;;5.15;2.25;;;;;;;;;;4984909;28;20845;-66
2022/09/24 02:41:08;;;;;;;4.68;2.20;;;;;;;;;;4985614;28;20050;-65
2022/09/24 02:43:35;;;;;;;6.15;2.45;;;;;;;;;;4984108;28;20035;-66
2022/09/24 02:46:02;;;;;;;6.80;2.13;;;;;;;;;;4985372;28;21671;-64
2022/09/24 02:48:29;;;;;;;4.75;2.10;;;;;;;;;;4985593;28;20038;-65
2022/09/24 02:50:56;;;;;;;4.65;1.98;;;;;;;;;;4984608;28;20049;-64
2022/09/24 02:53:22;;;;;;;4.35;2.10;;;;;;;;;;4983443;28;20211;-65
2022/09/24 02:55:49;;;;;;;4.65;2.22;;;;;;;;;;4985852;28;20034;-66
2022/09/24 02:58:15;;;;;;;5.20;2.45;;;;;;;;;;4986998;28;20053;-66
2022/09/24 03:00:42;;;;;;;5.15;2.25;;;;;;;;;;4988359;28;20064;-65
2022/09/24 03:03:09;;;;;;;5.82;2.25;;;;;;;;;;4988675;28;20179;-64
2022/09/24 03:05:35;;;;;;;7.28;2.10;;;;;;;;;;4996042;28;20376;-66
2022/09/24 03:08:02;;;;;;;5.07;2.10;;;;;;;;;;4984789;28;20412;-65
2022/09/24 03:10:29;;;;;;;4.55;2.45;;;;;;;;;;4981721;28;20026;-65
2022/09/24 03:12:55;;;;;;;5.45;2.38;;;;;;;;;;4982543;28;20085;-65
2022/09/24 03:15:22;;;;;;;6.18;2.50;;;;;;;;;;4982571;28;20097;-65
2022/09/24 03:17:49;;;;;;;4.40;2.10;;;;;;;;;;4983226;28;20549;-63
2022/09/24 03:20:16;;;;;;;4.65;2.17;;;;;;;;;;4981896;28;20061;-65
2022/09/24 03:22:42;;;;;;;6.10;2.30;;;;;;;;;;4982519;28;20045;-65
2022/09/24 03:25:10;;;;;;;4.93;2.00;;;;;;;;;;4983695;28;20043;-66
2022/09/24 03:27:36;;;;;;;5.38;2.13;;;;;;;;;;4983021;28;20039;-66
2022/09/24 03:32:48;;;;;;;6.05;2.40;;;;;;;;;;4983189;28;20517;-63
2022/09/24 03:35:15;;;;;;;5.70;2.00;;;;;;;;;;4982762;28;20044;-64
2022/09/24 03:37:42;;;;;;;5.13;1.90;;;;;;;;;;4981732;28;20134;-64
2022/09/24 03:40:09;;;;;;;4.18;1.70;;;;;;;;;;4981743;28;20138;-65
2022/09/24 03:42:35;;;;;;;6.50;2.10;;;;;;;;;;4981866;28;20042;-65
2022/09/24 03:45:02;;;;;;;4.70;2.10;;;;;;;;;;4982655;28;20085;-66
2022/09/24 03:47:29;;;;;;;5.68;2.10;;;;;;;;;;4982894;28;20780;-66
2022/09/24 03:49:56;;;;;;;6.05;2.50;;;;;;;;;;4982870;28;20038;-66
2022/09/24 03:52:23;;;;;;;4.72;1.98;;;;;;;;;;4981319;28;20491;-66
2022/09/24 03:54:50;;;;;;;4.88;2.15;;;;;;;;;;4982318;28;20066;-66
2022/09/24 03:57:16;;;;;;;4.10;2.17;;;;;;;;;;4982236;28;20050;-65
2022/09/24 03:59:44;;;;;;;4.07;2.00;;;;;;;;;;4983601;28;20042;-65
2022/09/24 04:02:11;;;;;;;8.70;2.13;;;;;;;;;;4983509;28;20065;-64
2022/09/24 04:04:38;;;;;;;6.00;2.20;;;;;;;;;;4981630;28;20619;-65
2022/09/24 04:07:05;;;;;;;4.43;2.10;;;;;;;;;;4984305;28;20121;-66
2022/09/24 04:09:31;;;;;;;5.55;2.03;;;;;;;;;;4981591;28;20038;-66
2022/09/24 04:11:58;;;;;;;5.43;2.03;;;;;;;;;;4992635;28;20046;-66
2022/09/24 04:14:24;;;;;;;3.97;2.00;;;;;;;;;;4980934;28;20031;-65
2022/09/24 04:16:52;;;;;;;4.70;2.13;;;;;;;;;;4982040;28;20030;-65
2022/09/24 04:19:19;;;;;;;4.97;2.20;;;;;;;;;;4982100;28;20757;-67
2022/09/24 04:21:45;;;;;;;4.57;1.90;;;;;;;;;;4981116;28;20165;-66
2022/09/24 04:24:12;;;;;;;4.40;1.98;;;;;;;;;;4983504;28;20038;-65
2022/09/24 04:26:39;;;;;;;4.40;1.90;;;;;;;;;;4981948;28;20208;-66
2022/09/24 04:29:06;;;;;;;4.25;2.00;;;;;;;;;;4980423;28;20038;-65
2022/09/24 04:31:33;;;;;;;5.32;1.80;;;;;;;;;;4983445;28;20057;-66
2022/09/24 04:34:00;;;;;;;4.15;1.95;;;;;;;;;;4992440;28;20077;-65
2022/09/24 04:36:27;;;;;;;4.45;1.90;;;;;;;;;;4979182;28;20035;-65
2022/09/24 04:38:53;;;;;;;4.68;1.88;;;;;;;;;;4981384;28;20073;-65
2022/09/24 04:41:20;;;;;;;5.03;1.95;;;;;;;;;;4980220;28;20121;-65
2022/09/24 04:43:47;;;;;;;5.75;1.98;;;;;;;;;;4980923;28;20042;-66
2022/09/24 04:46:14;;;;;;;5.20;2.08;;;;;;;;;;4981870;28;20143;-66
2022/09/24 04:48:40;;;;;;;5.22;1.92;;;;;;;;;;4982140;28;20698;-67
2022/09/24 04:51:27;;;;;;;5.00;1.80;;;;;;;;;;4974659;28;20062;-63
2022/09/24 04:53:53;;;;;;;9.80;2.10;;;;;;;;;;4974061;28;20038;-66
2022/09/24 04:56:20;;;;;;;4.32;1.90;;;;;;;;;;4970864;28;20042;-67
2022/09/24 04:58:49;;;;;;;4.63;2.00;;;;;;;;;;4973328;28;20134;-65
2022/09/24 05:01:16;;;;;;;4.40;1.90;;;;;;;;;;4974583;28;20081;-66
2022/09/24 05:03:45;;;;;;;5.13;2.00;;;;;;;;;;4970881;28;20459;-66
2022/09/24 05:06:12;;;;;;;4.50;2.25;;;;;;;;;;4970487;28;20039;-65
2022/09/24 05:08:39;;;;;;;4.15;1.90;;;;;;;;;;4972053;28;21228;-65
2022/09/24 05:11:05;;;;;;;4.68;2.10;;;;;;;;;;4972423;28;20113;-66
2022/09/24 05:13:32;;;;;;;4.30;1.65;;;;;;;;;;4972242;28;20048;-67
2022/09/24 05:15:59;;;;;;;4.63;1.95;;;;;;;;;;4973301;28;21659;-66
2022/09/24 05:18:26;;;;;;;4.88;2.00;;;;;;;;;;4973014;28;20051;-67
2022/09/24 05:20:53;;;;;;;3.65;1.90;;;;;;;;;;4973518;28;20938;-66
2022/09/24 05:23:20;;;;;;;5.20;2.22;;;;;;;;;;4956576;28;20161;-66
2022/09/24 05:28:32;;;;;;;5.68;1.90;;;;;;;;;;4975165;28;20081;-66
2022/09/24 05:30:59;;;;;;;3.80;1.60;;;;;;;;;;4980699;28;20046;-64
2022/09/24 05:33:26;;;;;;;4.28;1.80;;;;;;;;;;4979632;28;20507;-63
2022/09/24 05:35:58;;;;;;;5.80;1.52;;;;;;;;;;4993297;28;20056;-64
2022/09/24 05:38:26;;;;;;;3.83;1.60;;;;;;;;;;4979687;28;20046;-67
2022/09/24 05:40:53;;;;;;;3.53;1.60;;;;;;;;;;4966961;28;20038;-63
2022/09/24 05:43:20;;;;;;;4.80;1.90;;;;;;;;;;4979426;28;20565;-67
2022/09/24 05:45:51;;;;;;;4.70;1.48;;;;;;;;;;4982022;28;20076;-63
2022/09/24 05:48:18;;;;;;;3.33;1.38;;;;;;;;;;4995095;28;20047;-64
2022/09/24 05:50:45;;;;;;;4.32;1.80;;;;;;;;;;4992807;28;21069;-64
2022/09/24 05:53:12;;;;;;;3.83;1.80;;;;;;;;;;4982472;28;20117;-65
2022/09/24 05:55:38;;;;;;;3.90;1.90;;;;;;;;;;4996845;28;20093;-65
2022/09/24 05:58:06;;;;;;;4.90;1.80;;;;;;;;;;4995778;28;20376;-64
2022/09/24 06:00:34;;;;;;;3.80;1.65;;;;;;;;;;4980173;28;20053;-62
2022/09/24 06:03:06;;;;;;;4.03;1.80;;;;;;;;;;4989489;28;20815;-62
2022/09/24 06:05:34;;;;;;;3.97;1.80;;;;;;;;;;4982845;28;20038;-64
2022/09/24 06:08:02;;;;;;;7.05;1.80;;;;;;;;;;4981311;28;20621;-63
2022/09/24 06:10:28;;;;;;;4.80;2.00;;;;;;;;;;4992043;28;20038;-63
2022/09/24 06:12:55;;;;;;;6.18;1.90;;;;;;;;;;4982577;28;20042;-65
2022/09/24 06:15:22;;;;;;;4.70;2.00;;;;;;;;;;4992733;28;20041;-66
2022/09/24 06:17:52;;;;;;;7.75;1.90;;;;;;;;;;4982756;28;20491;-64
2022/09/24 06:20:19;;;;;;;4.38;1.70;;;;;;;;;;4982212;28;20101;-64
2022/09/24 06:22:45;;;;;;;4.20;1.60;;;;;;;;;;4981024;28;20046;-64
2022/09/24 06:25:12;;;;;;;5.05;1.80;;;;;;;;;;4982825;28;20030;-64
2022/09/24 06:27:39;;;;;;;4.25;2.05;;;;;;;;;;4982286;28;20050;-64
2022/09/24 06:30:05;;;;;;;4.22;1.52;;;;;;;;;;4982929;28;20115;-64
2022/09/24 06:32:32;;;;;;;4.43;1.70;;;;;;;;;;4982153;28;20395;-65
2022/09/24 06:34:59;;;;;;;6.03;1.70;;;;;;;;;;4981791;28;20038;-65
2022/09/24 06:37:26;;;;;;;4.47;1.73;;;;;;;;;;4982226;28;20408;-64
2022/09/24 06:39:52;;;;;;;4.30;1.70;;;;;;;;;;4983710;28;20038;-65
2022/09/24 06:42:19;;;;;;;3.17;1.60;;;;;;;;;;4981941;28;20038;-63
2022/09/24 06:44:47;;;;;;;5.18;1.50;;;;;;;;;;4974676;28;20062;-63
2022/09/24 06:47:13;;;;;;;4.88;1.40;;;;;;;;;;4982035;28;20038;-64
2022/09/24 06:49:40;;;;;;;4.65;1.27;;;;;;;;;;4982374;28;20173;-64
2022/09/24 06:52:07;;;;;;;4.28;1.60;;;;;;;;;;4982345;28;20046;-64
2022/09/24 06:54:33;;;;;;;6.00;1.40;;;;;;;;;;4982375;28;20081;-64
2022/09/24 06:57:00;;;;;;;5.53;1.30;;;;;;;;;;4986651;28;20049;-64
2022/09/24 06:59:27;;;;;;;6.90;1.15;;;;;;;;;;4985823;28;20932;-65
2022/09/24 07:01:53;;;;;;;5.22;1.38;;;;;;;;;;4984866;28;20049;-63
2022/09/24 07:04:20;;;;;;;3.50;1.35;;;;;;;;;;4993030;28;20163;-64
2022/09/24 07:09:31;;;;;;;3.20;1.20;;;;;;;;;;4961977;28;20097;-64
2022/09/24 07:12:01;;;;;;;2.80;1.10;;;;;;;;;;4961540;28;20055;-64
2022/09/24 07:14:28;;;;;;;4.22;1.35;;;;;;;;;;4957280;28;20035;-65
2022/09/24 07:16:55;;;;;;;2.88;0.95;;;;;;;;;;4961279;28;20053;-64
2022/09/24 07:19:21;;;;;;;2.53;0.90;;;;;;;;;;4959547;28;20046;-64
2022/09/24 07:21:49;;;;;;;3.58;1.20;;;;;;;;;;4960347;28;20525;-65
2022/09/24 07:24:16;;;;;;;2.95;0.98;;;;;;;;;;4991277;28;20039;-68
2022/09/24 07:26:42;;;;;;;3.17;1.00;;;;;;;;;;4957705;28;20043;-64
2022/09/24 07:29:09;;;;;;;3.65;1.00;;;;;;;;;;4973486;28;20046;-64
2022/09/24 07:31:36;;;;;;;2.70;0.90;;;;;;;;;;4991833;28;20483;-64
2022/09/24 07:34:02;;;;;;;2.75;1.02;;;;;;;;;;4984988;28;20038;-65
2022/09/24 07:36:30;;;;;;;3.13;1.00;;;;;;;;;;4982431;28;20046;-65
2022/09/24 07:38:57;;;;;;;3.22;1.20;;;;;;;;;;4983396;28;20876;-64
2022/09/24 07:41:24;;;;;;;3.15;1.15;;;;;;;;;;4981715;28;20191;-65
2022/09/24 07:43:51;;;;;;;2.75;1.00;;;;;;;;;;4984438;28;20039;-66
2022/09/24 07:46:20;;;;;;;3.10;1.13;;;;;;;;;;4984065;28;20069;-64
2022/09/24 07:48:49;;;;;;;2.58;0.80;;;;;;;;;;4983232;28;20041;-64
2022/09/24 07:51:16;;;;;;;2.50;1.00;;;;;;;;;;4994343;28;20050;-64
2022/09/24 07:53:42;;;;;;;3.03;0.98;;;;;;;;;;4984149;28;20089;-65
2022/09/24 07:56:09;;;;;;;2.50;1.00;;;;;;;;;;4996021;28;20543;-64
2022/09/24 07:58:36;;;;;;;3.45;1.10;;;;;;;;;;4999223;28;20046;-62
2022/09/24 08:01:03;;;;;;;2.42;0.93;;;;;;;;;;4986540;28;20043;-65
2022/09/24 08:03:30;;;;;;;3.63;1.20;;;;;;;;;;4985134;28;20042;-63
2022/09/24 08:05:58;;;;;;;2.63;0.93;;;;;;;;;;4987678;28;20038;-62
2022/09/24 08:08:25;;;;;;;3.40;1.23;;;;;;;;;;4993268;28;20038;-63
2022/09/24 08:10:52;;;;;;;3.70;1.10;;;;;;;;;;4980972;28;20066;-63
2022/09/24 08:13:18;;;;;;;2.70;1.00;;;;;;;;;;4985085;28;20214;-64
2022/09/24 08:15:45;;;;;;;2.42;0.88;;;;;;;;;;4983085;28;20045;-65
2022/09/24 08:18:11;;;;;;;3.05;1.00;;;;;;;;;;4995808;28;20069;-62
2022/09/24 08:20:38;;;;;;;3.20;1.00;;;;;;;;;;4982254;28;20547;-65
2022/09/24 08:23:06;;;;;;;3.50;1.05;;;;;;;;;;4983009;28;20046;-64
2022/09/24 08:25:33;;;;;;;2.50;0.88;;;;;;;;;;4982257;28;20865;-64
2022/09/24 08:28:03;;;;;;;3.90;1.15;;;;;;;;;;4983726;28;20057;-64
2022/09/24 08:30:29;;;;;;;2.55;0.90;;;;;;;;;;4981792;28;20511;-65
2022/09/24 08:32:56;;;;;;;2.10;0.77;;;;;;;;;;4983001;28;20485;-64
2022/09/24 08:35:24;;;;;;;4.00;0.90;;;;;;;;;;4982987;28;20073;-63
2022/09/24 08:37:53;;;;;;;2.83;1.05;;;;;;;;;;4981761;28;20093;-65
2022/09/24 08:40:22;;;;;;;5.38;0.90;;;;;;;;;;4982732;28;20141;-64
2022/09/24 08:42:58;;;;;;;2.80;0.98;;;;;;;;;;4975410;28;20118;-65
2022/09/24 08:48:14;;;;;;;3.60;0.95;;;;;;;;;;4983322;28;20045;-65
2022/09/24 08:50:48;;;;;;;6.40;1.00;;;;;;;;;;4993739;28;20038;-66
2022/09/24 08:53:14;;;;;;;2.65;0.80;;;;;;;;;;4983342;28;20088;-64
2022/09/24 08:55:43;;;;;;;5.10;0.98;;;;;;;;;;4982725;28;20606;-65
2022/09/24 08:58:10;;;;;;;2.67;0.77;;;;;;;;;;4984438;28;20173;-66
2022/09/24 09:00:43;;;;;;;3.13;0.88;;;;;;;;;;4993357;28;20049;-64
2022/09/24 09:03:15;;;;;;;1.95;0.60;;;;;;;;;;4982974;28;20158;-64
2022/09/24 09:05:45;;;;;;;2.58;0.80;;;;;;;;;;4993217;28;20046;-64
2022/09/24 09:08:17;;;;;;;2.80;0.90;;;;;;;;;;4993698;28;20045;-65
2022/09/24 09:10:44;;;;;;;5.47;1.00;;;;;;;;;;4982101;28;20131;-63
2022/09/24 09:13:32;;;;;;;5.35;1.00;;;;;;;;;;4982048;28;20048;-65
2022/09/24 09:16:10;;;;;;;2.75;0.75;;;;;;;;;;4993188;28;20050;-66
2022/09/24 09:18:40;;;;;;;2.97;0.80;;;;;;;;;;4980676;28;20136;-64
2022/09/24 09:21:16;;;;;;;3.60;0.82;;;;;;;;;;4989668;28;20070;-65
2022/09/24 09:23:50;;;;;;;3.42;0.90;;;;;;;;;;4994602;28;20438;-64
2022/09/24 09:26:18;;;;;;;3.17;0.90;;;;;;;;;;4997603;28;20133;-64
2022/09/24 09:28:45;;;;;;;5.25;0.80;;;;;;;;;;4983684;28;20185;-65
2022/09/24 09:31:12;;;;;;;2.97;0.88;;;;;;;;;;4987854;28;20527;-66
2022/09/24 09:33:39;;;;;;;2.08;0.70;;;;;;;;;;4994472;28;20042;-65
2022/09/24 09:36:15;;;;;;;3.20;1.00;;;;;;;;;;4992981;28;20034;-65
2022/09/24 09:38:49;;;;;;;3.30;0.90;;;;;;;;;;4992977;28;20050;-66
2022/09/24 09:41:28;;;;;;;2.20;0.70;;;;;;;;;;4981759;28;20645;-65
2022/09/24 09:43:59;;;;;;;2.78;0.75;;;;;;;;;;4981952;28;20038;-64
2022/09/24 09:46:30;;;;;;;2.60;0.90;;;;;;;;;;4981721;28;20514;-65
2022/09/24 09:48:59;;;;;;;2.63;0.80;;;;;;;;;;4983375;28;20662;-65
2022/09/24 09:51:26;;;;;;;2.00;0.70;;;;;;;;;;4994362;28;20575;-65
2022/09/24 09:53:56;;;;;;;2.63;0.90;;;;;;;;;;4983810;28;20042;-65
2022/09/24 09:56:23;;;;;;;1.98;0.60;;;;;;;;;;4977865;28;20068;-64
2022/09/24 09:58:54;;;;;;;2.10;0.68;;;;;;;;;;4995103;28;20050;-66
2022/09/24 10:01:30;;;;;;;2.75;0.88;;;;;;;;;;4980249;28;20380;-65
2022/09/24 10:04:03;;;;;;;2.28;0.75;;;;;;;;;;4994580;28;20034;-65
2022/09/24 10:06:31;;;;;;;2.13;0.60;;;;;;;;;;4977655;28;20128;-65
2022/09/24 10:09:12;;;;;;;2.40;0.80;;;;;;;;;;4992559;28;20105;-64
2022/09/24 10:11:39;;;;;;;3.78;0.80;;;;;;;;;;4981402;28;20419;-65
2022/09/24 10:14:09;;;;;;;1.88;0.70;;;;;;;;;;4983536;28;20038;-66
2022/09/24 10:16:39;;;;;;;1.73;0.60;;;;;;;;;;4983407;28;20042;-65
2022/09/24 10:19:15;;;;;;;1.98;0.60;;;;;;;;;;4983034;28;20050;-65
2022/09/24 10:21:42;;;;;;;1.77;0.50;;;;;;;;;;4978450;28;20091;-65
2022/09/24 10:24:15;;;;;;;2.45;0.70;;;;;;;;;;4979750;28;20274;-66
2022/09/24 10:26:43;;;;;;;2.13;0.70;;;;;;;;;;4994494;28;20042;-66
2022/09/24 10:32:21;;;;;;;2.28;0.73;;;;;;;;;;4988103;28;20045;-66
2022/09/24 10:34:58;;;;;;;2.35;0.73;;;;;;;;;;4986074;28;20038;-65
2022/09/24 10:37:25;;;;;;;1.83;0.63;;;;;;;;;;4984517;28;20046;-66
2022/09/24 10:40:26;;;;;;;1.90;0.63;;;;;;;;;;4979827;28;20082;-67
2022/09/24 10:42:59;;;;;;;2.17;0.70;;;;;;;;;;4938891;28;20038;-66
2022/09/24 10:45:35;;;;;;;3.60;0.90;;;;;;;;;;4995420;28;20475;-66
2022/09/24 10:48:11;;;;;;;3.28;0.93;;;;;;;;;;4982258;28;20414;-66
2022/09/24 10:50:44;;;;;;;2.10;0.70;;;;;;;;;;4984671;28;20049;-65
2022/09/24 10:53:11;;;;;;;;;;;;;;;;;;4986200;28;20043;-65
2022/09/24 10:55:46;;;;;;;1.80;0.60;;;;;;;;;;4985242;28;20116;-66
2022/09/24 10:58:36;;;;;;;1.70;0.60;;;;;;;;;;4985448;28;20046;-66
2022/09/24 11:01:08;;;;;;;2.33;0.70;;;;;;;;;;4999782;28;20585;-65
2022/09/24 11:03:35;;;;;;;2.75;0.80;;;;;;;;;;4997254;28;20187;-66
2022/09/24 11:06:10;;;;;;;3.00;0.80;;;;;;;;;;4990395;28;20061;-65
2022/09/24 11:08:37;;;;;;;2.05;0.70;;;;;;;;;;5002864;28;20026;-65
2022/09/24 11:11:03;;;;;;;3.60;0.60;;;;;;;;;;5002242;28;20033;-64
2022/09/24 11:13:39;;;;;;;2.17;0.70;;;;;;;;;;5001263;28;20046;-65
2022/09/24 11:16:24;;;;;;;2.08;0.70;;;;;;;;;;4999379;28;20042;-64
2022/09/24 11:18:54;;;;;;;2.17;0.73;;;;;;;;;;5001707;28;20065;-64
2022/09/24 11:21:20;;;;;;;2.15;0.70;;;;;;;;;;4998861;28;20045;-67
2022/09/24 11:23:55;;;;;;;2.17;0.73;;;;;;;;;;5002228;28;20155;-64
2022/09/24 11:26:45;;;;;;;2.08;0.63;;;;;;;;;;5002599;28;20042;-65
2022/09/24 11:29:30;;;;;;;2.40;0.90;;;;;;;;;;4965176;28;20046;-64
2022/09/24 11:31:57;;;;;;;3.60;0.98;;;;;;;;;;4995609;28;20491;-65
2022/09/24 11:34:30;;;;;;;4.72;0.80;;;;;;;;;;4995635;28;20040;-65
2022/09/24 11:36:59;;;;;;;3.15;0.80;;;;;;;;;;4985664;28;20030;-64
2022/09/24 11:39:41;;;;;;;2.35;0.68;;;;;;;;;;4984499;28;20043;-65
2022/09/24 11:42:15;;;;;;;2.03;0.60;;;;;;;;;;4985953;28;20497;-66
2022/09/24 11:44:49;;;;;;;2.55;0.88;;;;;;;;;;4997057;28;20483;-65
2022/09/24 11:47:16;;;;;;;2.13;0.70;;;;;;;;;;4986814;28;20526;-65
2022/09/24 11:49:55;;;;;;;4.65;0.88;;;;;;;;;;4982165;28;20195;-65
2022/09/24 11:52:29;;;;;;;5.03;0.70;;;;;;;;;;4984001;28;20054;-66
2022/09/24 11:55:05;;;;;;;5.13;0.85;;;;;;;;;;4983979;28;20471;-66
2022/09/24 11:57:33;;;;;;;3.22;0.95;;;;;;;;;;4985392;28;20050;-66
2022/09/24 12:00:08;;;;;;;3.97;0.90;;;;;;;;;;4983984;28;20038;-65
2022/09/24 12:02:44;;;;;;;3.50;0.80;;;;;;;;;;4982502;28;20147;-65
2022/09/24 12:05:18;;;;;;;2.40;0.75;;;;;;;;;;5000027;28;20056;-65
2022/09/24 12:07:49;;;;;;;2.20;0.63;;;;;;;;;;4985787;28;20081;-66
2022/09/24 12:10:34;;;;;;;3.28;0.70;;;;;;;;;;4994629;28;20053;-65
2022/09/24 12:13:04;;;;;;;2.42;0.80;;;;;;;;;;4984813;28;20046;-66
2022/09/24 12:15:42;;;;;;;3.88;0.90;;;;;;;;;;4982851;28;20157;-65
2022/09/24 12:18:14;;;;;;;3.78;0.93;;;;;;;;;;4982384;28;20046;-65
2022/09/24 12:20:47;;;;;;;2.80;0.90;;;;;;;;;;4984179;28;20046;-65
2022/09/24 12:23:16;;;;;;;2.35;0.75;;;;;;;;;;4995563;28;20038;-66
2022/09/24 12:25:45;;;;;;;3.75;1.00;;;;;;;;;;4980116;28;20042;-66
2022/09/24 12:28:13;;;;;;;2.85;0.90;;;;;;;;;;4983095;28;20097;-66
2022/09/24 12:33:34;;;;;;;3.22;0.93;;;;;;;;;;4981678;28;20088;-65
2022/09/24 12:36:13;;;;;;;3.33;1.00;;;;;;;;;;4982737;28;20046;-65
2022/09/24 12:38:51;;;;;;;4.18;1.00;;;;;;;;;;4981112;28;20069;-65
2022/09/24 12:41:21;;;;;;;3.65;0.80;;;;;;;;;;4983910;28;20043;-65
2022/09/24 12:43:47;;;;;;;3.00;1.02;;;;;;;;;;4974645;28;20046;-65
2022/09/24 12:46:37;;;;;;;2.72;0.90;;;;;;;;;;4983826;28;20043;-66
2022/09/24 12:49:04;;;;;;;4.47;1.00;;;;;;;;;;4957688;28;20058;-65
2022/09/24 12:51:37;;;;;;;4.57;0.90;;;;;;;;;;4957576;28;20039;-65
2022/09/24 12:54:16;;;;;;;5.70;1.00;;;;;;;;;;4971008;28;20727;-66
2022/09/24 12:56:43;;;;;;;2.65;0.73;;;;;;;;;;4959034;28;20138;-64
2022/09/24 12:59:24;;;;;;;3.47;0.82;;;;;;;;;;4958895;28;20054;-65
2022/09/24 13:01:51;;;;;;;3.75;0.65;;;;;;;;;;4983783;28;20034;-66
2022/09/24 13:04:18;;;;;;;3.00;0.82;;;;;;;;;;4995979;28;20034;-67
2022/09/24 13:06:47;;;;;;;2.17;0.80;;;;;;;;;;4994778;28;20034;-65
2022/09/24 13:09:41;;;;;;;1.45;0.50;;;;;;;;;;4977715;28;20093;-65
2022/09/24 13:12:13;;;;;;;2.40;0.80;;;;;;;;;;4997214;28;20157;-66
2022/09/24 13:14:41;;;;;;;3.67;0.73;;;;;;;;;;4996060;28;20250;-67
2022/09/24 13:17:08;;;;;;;2.83;0.70;;;;;;;;;;4996169;28;20294;-66
2022/09/24 13:19:43;;;;;;;3.17;0.68;;;;;;;;;;4994809;28;20056;-65
2022/09/24 13:22:21;;;;;;;2.47;0.70;;;;;;;;;;4964054;28;20052;-65
2022/09/24 13:24:50;;;;;;;3.35;0.90;;;;;;;;;;4995451;28;20982;-66
2022/09/24 13:27:22;;;;;;;6.10;0.70;;;;;;;;;;4994141;28;20033;-65
2022/09/24 13:30:02;;;;;;;5.85;1.00;;;;;;;;;;4994733;28;20050;-65
2022/09/24 13:32:33;;;;;;;4.68;0.73;;;;;;;;;;4996646;28;21028;-65
2022/09/24 13:35:05;;;;;;;2.83;0.80;;;;;;;;;;4977514;28;20057;-66
2022/09/24 13:37:34;;;;;;;4.28;0.90;;;;;;;;;;4996718;28;20057;-65
2022/09/24 13:40:04;;;;;;;2.03;0.60;;;;;;;;;;4995193;28;20132;-65
2022/09/24 13:42:37;;;;;;;2.45;0.80;;;;;;;;;;4994611;28;20131;-66
2022/09/24 13:45:11;;;;;;;4.15;0.93;;;;;;;;;;4994995;28;20155;-67
2022/09/24 13:47:47;;;;;;;5.90;0.88;;;;;;;;;;4984838;28;20058;-66
2022/09/24 13:50:20;;;;;;;3.50;0.88;;;;;;;;;;4981603;28;20742;-67
2022/09/24 13:52:53;;;;;;;4.20;0.90;;;;;;;;;;4967965;28;20649;-65
2022/09/24 13:55:34;;;;;;;4.35;0.93;;;;;;;;;;4958315;28;20049;-64
2022/09/24 13:58:01;;;;;;;6.22;1.20;;;;;;;;;;4962745;28;20452;-65
2022/09/24 14:00:30;;;;;;;2.83;0.80;;;;;;;;;;4963182;28;20037;-65
2022/09/24 14:03:04;;;;;;;2.45;0.80;;;;;;;;;;4963342;28;20405;-66
2022/09/24 14:05:37;;;;;;;3.67;0.90;;;;;;;;;;4965588;28;20038;-66
2022/09/24 14:08:14;;;;;;;7.63;1.13;;;;;;;;;;4967870;28;20117;-66
2022/09/24 14:10:41;;;;;;;3.22;0.90;;;;;;;;;;4967468;28;20729;-64
2022/09/24 14:13:20;;;;;;;3.80;0.80;;;;;;;;;;4967606;28;21899;-64
2022/09/24 14:16:07;;;;;;;1.88;0.70;;;;;;;;;;4967720;28;20038;-64
2022/09/24 14:18:33;;;;;;;3.22;0.90;;;;;;;;;;4967246;28;20078;-65
2022/09/24 14:21:13;;;;;;;3.40;0.90;;;;;;;;;;4969272;28;20093;-65
2022/09/24 14:23:44;;;;;;;2.47;0.80;;;;;;;;;;4967424;28;20468;-65
2022/09/24 14:26:16;;;;;;;4.32;0.98;;;;;;;;;;4969609;28;20035;-65
2022/09/24 14:28:42;;;;;;;3.15;0.90;;;;;;;;;;4967877;28;20070;-64
2022/09/24 14:31:09;;;;;;;2.13;0.60;;;;;;;;;;4983069;28;21300;-64
2022/09/24 14:33:37;;;;;;;2.28;0.77;;;;;;;;;;4966751;28;20038;-66
2022/09/24 14:36:04;;;;;;;2.25;0.70;;;;;;;;;;4967812;28;20109;-65
2022/09/24 14:38:46;;;;;;;5.22;1.10;;;;;;;;;;4963706;28;20097;-66
2022/09/24 14:41:17;;;;;;;6.68;0.90;;;;;;;;;;4966538;28;20043;-66
2022/09/24 14:43:46;;;;;;;2.40;0.80;;;;;;;;;;4966572;28;20026;-66
2022/09/24 14:46:24;;;;;;;5.45;1.23;;;;;;;;;;4967590;28;20050;-66
2022/09/24 14:48:54;;;;;;;3.80;1.00;;;;;;;;;;4968873;28;20047;-66
2022/09/24 14:51:28;;;;;;;4.82;1.02;;;;;;;;;;4959313;28;20098;-65
2022/09/24 14:54:19;;;;;;;6.05;0.90;;;;;;;;;;4964069;28;20348;-65
2022/09/24 14:56:45;;;;;;;2.13;0.60;;;;;;;;;;4962014;28;20427;-67
2022/09/24 14:59:17;;;;;;;4.95;0.90;;;;;;;;;;4964055;28;20050;-66
2022/09/24 15:01:43;;;;;;;3.25;0.80;;;;;;;;;;4964249;28;20185;-66
2022/09/24 15:04:24;;;;;;;2.17;0.55;;;;;;;;;;4956419;28;20488;-67
2022/09/24 15:06:53;;;;;;;3.03;0.70;;;;;;;;;;4983140;28;20035;-66
2022/09/24 15:09:20;;;;;;;2.83;0.65;;;;;;;;;;4960294;28;20074;-68
2022/09/24 15:11:47;;;;;;;5.03;0.70;;;;;;;;;;4973542;28;20054;-67
2022/09/24 15:14:26;;;;;;;2.30;0.63;;;;;;;;;;4996980;28;20049;-66
2022/09/24 15:16:54;;;;;;;1.25;0.50;;;;;;;;;;4968523;28;20043;-66
2022/09/24 15:19:20;;;;;;;1.60;0.60;;;;;;;;;;4958581;28;20106;-65
2022/09/24 15:21:51;;;;;;;1.70;0.57;;;;;;;;;;4998068;28;20041;-67